sensor_id;sensor_type;location;lat;lon;timestamp;P1;durP1;ratioP1;P2;durP2;ratioP2
24161;SDS011;12318;51.262;7.066;2023-03-14T00:01:59;6.72;;;1.67;;
24161;SDS011;12318;51.262;7.066;2023-03-14T00:04:25;6.45;;;1.88;;
24161;SDS011;12318;51.262;7.066;2023-03-14T00:06:51;7.28;;;2.05;;
24161;SDS011;12318;51.262;7.066;2023-03-14T00:09:16;6.90;;;1.70;;
24161;SDS011;12318;51.262;7.066;2023-03-14T00:11:45;7.20;;;1.90;;
24161;SDS011;12318;51.262;7.066;2023-03-14T00:14:14;11.98;;;1.90;;
24161;SDS011;12318;51.262;7.066;2023-03-14T00:16:51;8.15;;;2.25;;
24161;SDS011;12318;51.262;7.066;2023-03-14T00:19:16;6.95;;;1.75;;
24161;SDS011;12318;51.262;7.066;2023-03-14T00:21:42;6.97;;;1.60;;
24161;SDS011;12318;51.262;7.066;2023-03-14T00:24:08;10.70;;;1.90;;
24161;SDS011;12318;51.262;7.066;2023-03-14T00:26:34;10.13;;;1.67;;
24161;SDS011;12318;51.262;7.066;2023-03-14T00:29:00;8.80;;;1.65;;
24161;SDS011;12318;51.262;7.066;2023-03-14T00:31:25;8.45;;;1.83;;
24161;SDS011;12318;51.262;7.066;2023-03-14T00:33:51;7.43;;;1.90;;
24161;SDS011;12318;51.262;7.066;2023-03-14T00:36:19;9.60;;;1.95;;
24161;SDS011;12318;51.262;7.066;2023-03-14T00:38:46;7.95;;;1.65;;
24161;SDS011;12318;51.262;7.066;2023-03-14T00:41:14;10.98;;;2.42;;
24161;SDS011;12318;51.262;7.066;2023-03-14T00:43:41;8.25;;;1.92;;
24161;SDS011;12318;51.262;7.066;2023-03-14T00:46:08;7.68;;;1.77;;
24161;SDS011;12318;51.262;7.066;2023-03-14T00:48:34;9.95;;;2.15;;
24161;SDS011;12318;51.262;7.066;2023-03-14T00:51:00;7.70;;;1.40;;
24161;SDS011;12318;51.262;7.066;2023-03-14T00:53:27;12.55;;;1.75;;
24161;SDS011;12318;51.262;7.066;2023-03-14T00:55:53;9.77;;;1.70;;
24161;SDS011;12318;51.262;7.066;2023-03-14T00:58:19;10.70;;;2.00;;
24161;SDS011;12318;51.262;7.066;2023-03-14T01:00:45;9.07;;;2.10;;
24161;SDS011;12318;51.262;7.066;2023-03-14T01:03:11;11.82;;;2.10;;
24161;SDS011;12318;51.262;7.066;2023-03-14T01:05:38;10.55;;;1.90;;
24161;SDS011;12318;51.262;7.066;2023-03-14T01:08:05;8.93;;;1.60;;
24161;SDS011;12318;51.262;7.066;2023-03-14T01:10:31;7.63;;;1.63;;
24161;SDS011;12318;51.262;7.066;2023-03-14T01:12:58;10.13;;;2.00;;
24161;SDS011;12318;51.262;7.066;2023-03-14T01:15:24;8.38;;;1.70;;
24161;SDS011;12318;51.262;7.066;2023-03-14T01:17:50;10.32;;;1.73;;
24161;SDS011;12318;51.262;7.066;2023-03-14T01:20:15;10.00;;;1.70;;
24161;SDS011;12318;51.262;7.066;2023-03-14T01:22:42;10.35;;;1.92;;
24161;SDS011;12318;51.262;7.066;2023-03-14T01:25:09;7.68;;;1.30;;
24161;SDS011;12318;51.262;7.066;2023-03-14T01:27:37;8.27;;;1.30;;
24161;SDS011;12318;51.262;7.066;2023-03-14T01:30:03;8.75;;;1.48;;
24161;SDS011;12318;51.262;7.066;2023-03-14T01:32:29;11.30;;;1.63;;
24161;SDS011;12318;51.262;7.066;2023-03-14T01:34:55;9.63;;;1.40;;
24161;SDS011;12318;51.262;7.066;2023-03-14T01:37:21;7.85;;;1.55;;
24161;SDS011;12318;51.262;7.066;2023-03-14T01:39:47;10.43;;;1.90;;
24161;SDS011;12318;51.262;7.066;2023-03-14T01:42:14;8.40;;;1.30;;
24161;SDS011;12318;51.262;7.066;2023-03-14T01:45:52;9.27;;;1.77;;
24161;SDS011;12318;51.262;7.066;2023-03-14T01:47:51;7.95;;;1.67;;
24161;SDS011;12318;51.262;7.066;2023-03-14T01:50:16;11.88;;;1.65;;
24161;SDS011;12318;51.262;7.066;2023-03-14T01:52:43;8.30;;;1.63;;
24161;SDS011;12318;51.262;7.066;2023-03-14T01:55:14;9.77;;;1.52;;
24161;SDS011;12318;51.262;7.066;2023-03-14T01:57:56;5.15;;;1.25;;
24161;SDS011;12318;51.262;7.066;2023-03-14T02:00:25;9.07;;;1.88;;
24161;SDS011;12318;51.262;7.066;2023-03-14T02:02:58;7.88;;;1.60;;
24161;SDS011;12318;51.262;7.066;2023-03-14T02:05:32;8.43;;;1.77;;
24161;SDS011;12318;51.262;7.066;2023-03-14T02:08:02;10.95;;;2.05;;
24161;SDS011;12318;51.262;7.066;2023-03-14T02:10:33;19.58;;;2.60;;
24161;SDS011;12318;51.262;7.066;2023-03-14T02:13:02;11.95;;;1.58;;
24161;SDS011;12318;51.262;7.066;2023-03-14T02:15:30;12.68;;;2.38;;
24161;SDS011;12318;51.262;7.066;2023-03-14T02:17:57;9.95;;;2.22;;
24161;SDS011;12318;51.262;7.066;2023-03-14T02:23:07;9.93;;;2.13;;
24161;SDS011;12318;51.262;7.066;2023-03-14T02:25:41;11.50;;;2.13;;
24161;SDS011;12318;51.262;7.066;2023-03-14T02:28:08;14.88;;;2.40;;
24161;SDS011;12318;51.262;7.066;2023-03-14T02:30:35;14.77;;;2.05;;
24161;SDS011;12318;51.262;7.066;2023-03-14T02:33:05;14.02;;;2.40;;
24161;SDS011;12318;51.262;7.066;2023-03-14T02:41:08;7.25;;;1.27;;
24161;SDS011;12318;51.262;7.066;2023-03-14T02:43:33;8.68;;;1.35;;
24161;SDS011;12318;51.262;7.066;2023-03-14T02:46:00;6.65;;;1.40;;
24161;SDS011;12318;51.262;7.066;2023-03-14T02:49:02;6.63;;;1.27;;
24161;SDS011;12318;51.262;7.066;2023-03-14T02:51:26;7.95;;;1.75;;
24161;SDS011;12318;51.262;7.066;2023-03-14T02:53:53;6.00;;;1.17;;
24161;SDS011;12318;51.262;7.066;2023-03-14T02:56:19;8.48;;;1.65;;
24161;SDS011;12318;51.262;7.066;2023-03-14T02:58:45;7.53;;;1.77;;
24161;SDS011;12318;51.262;7.066;2023-03-14T03:01:11;6.38;;;1.45;;
24161;SDS011;12318;51.262;7.066;2023-03-14T03:03:36;10.07;;;1.75;;
24161;SDS011;12318;51.262;7.066;2023-03-14T03:06:02;8.27;;;1.45;;
24161;SDS011;12318;51.262;7.066;2023-03-14T03:08:28;10.88;;;1.67;;
24161;SDS011;12318;51.262;7.066;2023-03-14T03:10:54;6.30;;;1.30;;
24161;SDS011;12318;51.262;7.066;2023-03-14T03:13:22;6.07;;;1.33;;
24161;SDS011;12318;51.262;7.066;2023-03-14T03:15:50;9.15;;;1.75;;
24161;SDS011;12318;51.262;7.066;2023-03-14T03:18:16;6.38;;;1.48;;
24161;SDS011;12318;51.262;7.066;2023-03-14T03:20:41;9.30;;;1.60;;
24161;SDS011;12318;51.262;7.066;2023-03-14T03:23:07;9.70;;;1.40;;
24161;SDS011;12318;51.262;7.066;2023-03-14T03:25:33;10.65;;;1.67;;
24161;SDS011;12318;51.262;7.066;2023-03-14T03:27:59;8.30;;;1.40;;
24161;SDS011;12318;51.262;7.066;2023-03-14T03:30:24;10.02;;;1.35;;
24161;SDS011;12318;51.262;7.066;2023-03-14T03:32:50;7.40;;;1.35;;
24161;SDS011;12318;51.262;7.066;2023-03-14T03:35:17;8.00;;;1.55;;
24161;SDS011;12318;51.262;7.066;2023-03-14T03:37:43;12.73;;;2.08;;
24161;SDS011;12318;51.262;7.066;2023-03-14T03:40:08;9.35;;;1.65;;
24161;SDS011;12318;51.262;7.066;2023-03-14T03:42:35;10.35;;;1.95;;
24161;SDS011;12318;51.262;7.066;2023-03-14T03:45:02;8.02;;;1.58;;
24161;SDS011;12318;51.262;7.066;2023-03-14T03:47:29;8.55;;;1.70;;
24161;SDS011;12318;51.262;7.066;2023-03-14T03:49:56;11.77;;;1.90;;
24161;SDS011;12318;51.262;7.066;2023-03-14T03:52:22;14.63;;;2.65;;
24161;SDS011;12318;51.262;7.066;2023-03-14T03:54:47;12.95;;;2.33;;
24161;SDS011;12318;51.262;7.066;2023-03-14T03:57:13;12.40;;;1.88;;
24161;SDS011;12318;51.262;7.066;2023-03-14T03:59:39;11.43;;;1.70;;
24161;SDS011;12318;51.262;7.066;2023-03-14T04:02:06;9.25;;;1.35;;
24161;SDS011;12318;51.262;7.066;2023-03-14T04:04:32;15.13;;;1.95;;
24161;SDS011;12318;51.262;7.066;2023-03-14T04:06:58;13.18;;;1.95;;
24161;SDS011;12318;51.262;7.066;2023-03-14T04:09:23;8.10;;;1.70;;
24161;SDS011;12318;51.262;7.066;2023-03-14T04:11:49;7.10;;;1.80;;
24161;SDS011;12318;51.262;7.066;2023-03-14T04:14:15;12.30;;;2.35;;
24161;SDS011;12318;51.262;7.066;2023-03-14T04:16:42;15.60;;;2.50;;
24161;SDS011;12318;51.262;7.066;2023-03-14T04:19:08;15.32;;;2.25;;
24161;SDS011;12318;51.262;7.066;2023-03-14T04:21:34;10.55;;;2.45;;
24161;SDS011;12318;51.262;7.066;2023-03-14T04:23:59;15.38;;;2.50;;
24161;SDS011;12318;51.262;7.066;2023-03-14T04:26:25;13.10;;;2.90;;
24161;SDS011;12318;51.262;7.066;2023-03-14T04:28:51;12.65;;;3.50;;
24161;SDS011;12318;51.262;7.066;2023-03-14T04:31:19;11.60;;;3.13;;
24161;SDS011;12318;51.262;7.066;2023-03-14T04:33:46;12.98;;;4.85;;
24161;SDS011;12318;51.262;7.066;2023-03-14T04:36:13;14.98;;;4.25;;
24161;SDS011;12318;51.262;7.066;2023-03-14T04:38:39;19.48;;;4.28;;
24161;SDS011;12318;51.262;7.066;2023-03-14T04:41:05;15.98;;;3.97;;
24161;SDS011;12318;51.262;7.066;2023-03-14T04:43:32;16.85;;;3.75;;
24161;SDS011;12318;51.262;7.066;2023-03-14T04:45:59;17.67;;;3.40;;
24161;SDS011;12318;51.262;7.066;2023-03-14T04:48:25;11.40;;;3.28;;
24161;SDS011;12318;51.262;7.066;2023-03-14T04:50:51;14.90;;;3.08;;
24161;SDS011;12318;51.262;7.066;2023-03-14T04:53:18;17.15;;;3.35;;
24161;SDS011;12318;51.262;7.066;2023-03-14T04:55:48;13.40;;;3.10;;
24161;SDS011;12318;51.262;7.066;2023-03-14T04:58:15;14.68;;;3.25;;
24161;SDS011;12318;51.262;7.066;2023-03-14T05:00:40;11.80;;;2.80;;
24161;SDS011;12318;51.262;7.066;2023-03-14T05:03:06;14.88;;;3.10;;
24161;SDS011;12318;51.262;7.066;2023-03-14T05:05:32;10.77;;;2.30;;
24161;SDS011;12318;51.262;7.066;2023-03-14T05:07:58;12.77;;;2.70;;
24161;SDS011;12318;51.262;7.066;2023-03-14T05:10:24;14.40;;;2.63;;
24161;SDS011;12318;51.262;7.066;2023-03-14T05:12:50;15.52;;;2.78;;
24161;SDS011;12318;51.262;7.066;2023-03-14T05:15:16;7.95;;;1.88;;
24161;SDS011;12318;51.262;7.066;2023-03-14T05:17:42;10.95;;;1.88;;
24161;SDS011;12318;51.262;7.066;2023-03-14T05:20:08;9.43;;;2.03;;
24161;SDS011;12318;51.262;7.066;2023-03-14T05:22:38;11.43;;;2.22;;
24161;SDS011;12318;51.262;7.066;2023-03-14T05:25:04;13.65;;;2.17;;
24161;SDS011;12318;51.262;7.066;2023-03-14T05:27:31;12.02;;;2.13;;
24161;SDS011;12318;51.262;7.066;2023-03-14T05:29:57;5.65;;;1.58;;
24161;SDS011;12318;51.262;7.066;2023-03-14T05:32:22;8.50;;;1.50;;
24161;SDS011;12318;51.262;7.066;2023-03-14T05:34:48;7.40;;;1.48;;
24161;SDS011;12318;51.262;7.066;2023-03-14T05:37:14;5.32;;;1.23;;
24161;SDS011;12318;51.262;7.066;2023-03-14T05:39:40;5.65;;;1.15;;
24161;SDS011;12318;51.262;7.066;2023-03-14T05:42:05;7.20;;;1.45;;
24161;SDS011;12318;51.262;7.066;2023-03-14T05:44:31;6.40;;;1.42;;
24161;SDS011;12318;51.262;7.066;2023-03-14T05:46:57;8.10;;;1.52;;
24161;SDS011;12318;51.262;7.066;2023-03-14T05:49:23;7.20;;;1.20;;
24161;SDS011;12318;51.262;7.066;2023-03-14T05:51:48;6.90;;;1.20;;
24161;SDS011;12318;51.262;7.066;2023-03-14T05:54:14;5.40;;;1.45;;
24161;SDS011;12318;51.262;7.066;2023-03-14T05:56:40;4.70;;;1.00;;
24161;SDS011;12318;51.262;7.066;2023-03-14T05:59:06;7.72;;;0.98;;
24161;SDS011;12318;51.262;7.066;2023-03-14T06:01:33;6.07;;;0.98;;
24161;SDS011;12318;51.262;7.066;2023-03-14T06:03:59;2.15;;;0.65;;
24161;SDS011;12318;51.262;7.066;2023-03-14T06:06:26;4.40;;;1.02;;
24161;SDS011;12318;51.262;7.066;2023-03-14T06:08:52;5.38;;;1.20;;
24161;SDS011;12318;51.262;7.066;2023-03-14T06:11:18;3.55;;;0.70;;
24161;SDS011;12318;51.262;7.066;2023-03-14T06:13:43;4.10;;;0.80;;
24161;SDS011;12318;51.262;7.066;2023-03-14T06:16:10;4.38;;;0.77;;
24161;SDS011;12318;51.262;7.066;2023-03-14T06:18:35;4.38;;;0.80;;
24161;SDS011;12318;51.262;7.066;2023-03-14T06:21:01;7.32;;;0.68;;
24161;SDS011;12318;51.262;7.066;2023-03-14T06:23:27;2.83;;;0.70;;
24161;SDS011;12318;51.262;7.066;2023-03-14T06:25:55;2.55;;;0.80;;
24161;SDS011;12318;51.262;7.066;2023-03-14T06:28:21;3.03;;;0.75;;
24161;SDS011;12318;51.262;7.066;2023-03-14T06:30:46;3.03;;;0.55;;
24161;SDS011;12318;51.262;7.066;2023-03-14T06:33:12;1.83;;;0.60;;
24161;SDS011;12318;51.262;7.066;2023-03-14T06:35:38;3.50;;;0.47;;
24161;SDS011;12318;51.262;7.066;2023-03-14T06:38:04;2.75;;;0.52;;
24161;SDS011;12318;51.262;7.066;2023-03-14T06:40:29;3.50;;;0.55;;
24161;SDS011;12318;51.262;7.066;2023-03-14T06:42:55;2.15;;;0.50;;
24161;SDS011;12318;51.262;7.066;2023-03-14T06:45:21;1.73;;;0.43;;
24161;SDS011;12318;51.262;7.066;2023-03-14T06:47:47;2.95;;;0.40;;
24161;SDS011;12318;51.262;7.066;2023-03-14T06:50:12;3.40;;;0.60;;
24161;SDS011;12318;51.262;7.066;2023-03-14T06:52:38;2.15;;;0.52;;
24161;SDS011;12318;51.262;7.066;2023-03-14T06:55:12;0.93;;;0.43;;
24161;SDS011;12318;51.262;7.066;2023-03-14T06:57:41;1.40;;;0.40;;
24161;SDS011;12318;51.262;7.066;2023-03-14T07:00:09;0.47;;;0.28;;
24161;SDS011;12318;51.262;7.066;2023-03-14T07:02:36;1.75;;;0.38;;
24161;SDS011;12318;51.262;7.066;2023-03-14T07:05:02;2.17;;;0.38;;
24161;SDS011;12318;51.262;7.066;2023-03-14T07:07:28;1.20;;;0.28;;
24161;SDS011;12318;51.262;7.066;2023-03-14T07:09:54;0.68;;;0.32;;
24161;SDS011;12318;51.262;7.066;2023-03-14T07:17:59;0.50;;;0.20;;
24161;SDS011;12318;51.262;7.066;2023-03-14T07:20:53;0.40;;;0.20;;
24161;SDS011;12318;51.262;7.066;2023-03-14T07:23:38;0.85;;;0.30;;
24161;SDS011;12318;51.262;7.066;2023-03-14T07:26:04;2.25;;;0.52;;
24161;SDS011;12318;51.262;7.066;2023-03-14T07:28:30;0.35;;;0.25;;
24161;SDS011;12318;51.262;7.066;2023-03-14T07:30:56;1.50;;;0.40;;
24161;SDS011;12318;51.262;7.066;2023-03-14T07:33:22;10.48;;;0.85;;
24161;SDS011;12318;51.262;7.066;2023-03-14T07:35:48;1.35;;;0.35;;
24161;SDS011;12318;51.262;7.066;2023-03-14T07:38:17;2.45;;;0.50;;
24161;SDS011;12318;51.262;7.066;2023-03-14T07:40:43;3.30;;;0.50;;
24161;SDS011;12318;51.262;7.066;2023-03-14T07:43:09;2.70;;;0.70;;
24161;SDS011;12318;51.262;7.066;2023-03-14T07:45:35;2.67;;;0.80;;
24161;SDS011;12318;51.262;7.066;2023-03-14T07:48:06;0.93;;;0.40;;
24161;SDS011;12318;51.262;7.066;2023-03-14T07:50:36;4.75;;;0.50;;
24161;SDS011;12318;51.262;7.066;2023-03-14T07:53:05;2.60;;;0.52;;
24161;SDS011;12318;51.262;7.066;2023-03-14T07:55:31;1.20;;;0.57;;
24161;SDS011;12318;51.262;7.066;2023-03-14T07:57:56;3.67;;;0.80;;
24161;SDS011;12318;51.262;7.066;2023-03-14T08:00:22;5.28;;;0.70;;
24161;SDS011;12318;51.262;7.066;2023-03-14T08:02:48;2.58;;;0.75;;
24161;SDS011;12318;51.262;7.066;2023-03-14T08:07:56;2.00;;;0.80;;
24161;SDS011;12318;51.262;7.066;2023-03-14T08:10:22;3.03;;;0.50;;
24161;SDS011;12318;51.262;7.066;2023-03-14T08:12:51;3.13;;;0.80;;
24161;SDS011;12318;51.262;7.066;2023-03-14T08:15:19;2.95;;;0.80;;
24161;SDS011;12318;51.262;7.066;2023-03-14T08:23:42;2.20;;;0.75;;
24161;SDS011;12318;51.262;7.066;2023-03-14T08:26:08;3.05;;;0.90;;
24161;SDS011;12318;51.262;7.066;2023-03-14T08:28:34;1.70;;;0.55;;
24161;SDS011;12318;51.262;7.066;2023-03-14T08:31:09;2.45;;;0.98;;
24161;SDS011;12318;51.262;7.066;2023-03-14T08:33:34;2.55;;;0.70;;
24161;SDS011;12318;51.262;7.066;2023-03-14T08:36:00;2.55;;;1.00;;
24161;SDS011;12318;51.262;7.066;2023-03-14T08:38:26;3.30;;;1.05;;
24161;SDS011;12318;51.262;7.066;2023-03-14T08:41:15;3.10;;;1.05;;
24161;SDS011;12318;51.262;7.066;2023-03-14T08:44:11;2.30;;;1.00;;
24161;SDS011;12318;51.262;7.066;2023-03-14T08:53:27;2.50;;;0.90;;
24161;SDS011;12318;51.262;7.066;2023-03-14T08:56:00;1.63;;;1.00;;
24161;SDS011;12318;51.262;7.066;2023-03-14T08:58:43;1.98;;;0.90;;
24161;SDS011;12318;51.262;7.066;2023-03-14T09:01:24;3.30;;;1.10;;
24161;SDS011;12318;51.262;7.066;2023-03-14T09:04:01;4.68;;;1.20;;
24161;SDS011;12318;51.262;7.066;2023-03-14T09:06:30;2.45;;;1.05;;
24161;SDS011;12318;51.262;7.066;2023-03-14T09:09:19;7.43;;;1.10;;
24161;SDS011;12318;51.262;7.066;2023-03-14T09:12:06;3.00;;;1.20;;
24161;SDS011;12318;51.262;7.066;2023-03-14T09:14:34;1.85;;;1.20;;
24161;SDS011;12318;51.262;7.066;2023-03-14T09:17:08;7.13;;;1.35;;
24161;SDS011;12318;51.262;7.066;2023-03-14T09:19:34;3.88;;;1.50;;
24161;SDS011;12318;51.262;7.066;2023-03-14T09:22:08;7.30;;;1.50;;
24161;SDS011;12318;51.262;7.066;2023-03-14T09:24:42;3.65;;;1.70;;
24161;SDS011;12318;51.262;7.066;2023-03-14T09:27:11;3.95;;;1.83;;
24161;SDS011;12318;51.262;7.066;2023-03-14T09:29:37;8.45;;;2.33;;
24161;SDS011;12318;51.262;7.066;2023-03-14T09:32:03;2.95;;;1.65;;
24161;SDS011;12318;51.262;7.066;2023-03-14T09:34:31;3.75;;;1.80;;
24161;SDS011;12318;51.262;7.066;2023-03-14T09:37:03;2.58;;;1.30;;
24161;SDS011;12318;51.262;7.066;2023-03-14T09:39:42;9.73;;;1.73;;
24161;SDS011;12318;51.262;7.066;2023-03-14T09:42:16;8.18;;;1.48;;
24161;SDS011;12318;51.262;7.066;2023-03-14T09:44:57;1.77;;;0.60;;
24161;SDS011;12318;51.262;7.066;2023-03-14T09:47:32;0.98;;;0.30;;
24161;SDS011;12318;51.262;7.066;2023-03-14T09:50:02;0.55;;;0.30;;
24161;SDS011;12318;51.262;7.066;2023-03-14T09:52:32;4.80;;;0.68;;
24161;SDS011;12318;51.262;7.066;2023-03-14T09:55:03;3.75;;;1.27;;
24161;SDS011;12318;51.262;7.066;2023-03-14T09:57:34;2.35;;;1.40;;
24161;SDS011;12318;51.262;7.066;2023-03-14T10:00:09;2.47;;;2.13;;
24161;SDS011;12318;51.262;7.066;2023-03-14T10:05:46;3.22;;;2.65;;
24161;SDS011;12318;51.262;7.066;2023-03-14T10:08:20;4.10;;;2.95;;
24161;SDS011;12318;51.262;7.066;2023-03-14T10:10:49;3.80;;;2.80;;
24161;SDS011;12318;51.262;7.066;2023-03-14T10:13:22;3.72;;;2.90;;
24161;SDS011;12318;51.262;7.066;2023-03-14T10:18:27;3.38;;;2.65;;
24161;SDS011;12318;51.262;7.066;2023-03-14T10:24:27;3.97;;;2.80;;
24161;SDS011;12318;51.262;7.066;2023-03-14T10:26:59;4.18;;;2.85;;
24161;SDS011;12318;51.262;7.066;2023-03-14T10:29:30;6.35;;;3.45;;
24161;SDS011;12318;51.262;7.066;2023-03-14T10:32:37;3.80;;;3.40;;
24161;SDS011;12318;51.262;7.066;2023-03-14T10:37:57;6.05;;;4.35;;
24161;SDS011;12318;51.262;7.066;2023-03-14T10:43:27;6.05;;;3.97;;
24161;SDS011;12318;51.262;7.066;2023-03-14T10:46:39;4.10;;;3.60;;
24161;SDS011;12318;51.262;7.066;2023-03-14T10:49:00;5.78;;;4.28;;
24161;SDS011;12318;51.262;7.066;2023-03-14T10:51:53;10.13;;;5.65;;
24161;SDS011;12318;51.262;7.066;2023-03-14T10:54:22;12.52;;;7.28;;
24161;SDS011;12318;51.262;7.066;2023-03-14T10:57:00;11.63;;;7.22;;
24161;SDS011;12318;51.262;7.066;2023-03-14T10:59:35;7.30;;;5.63;;
24161;SDS011;12318;51.262;7.066;2023-03-14T11:08:33;7.57;;;5.47;;
24161;SDS011;12318;51.262;7.066;2023-03-14T11:11:39;11.73;;;7.15;;
24161;SDS011;12318;51.262;7.066;2023-03-14T11:14:24;8.27;;;5.97;;
24161;SDS011;12318;51.262;7.066;2023-03-14T11:30:18;6.28;;;4.35;;
24161;SDS011;12318;51.262;7.066;2023-03-14T11:33:21;6.45;;;2.90;;
24161;SDS011;12318;51.262;7.066;2023-03-14T11:36:07;7.93;;;3.33;;
24161;SDS011;12318;51.262;7.066;2023-03-14T11:41:25;9.75;;;3.85;;
24161;SDS011;12318;51.262;7.066;2023-03-14T11:43:59;6.60;;;2.83;;
24161;SDS011;12318;51.262;7.066;2023-03-14T11:46:31;9.00;;;2.17;;
24161;SDS011;12318;51.262;7.066;2023-03-14T11:49:03;3.60;;;2.05;;
24161;SDS011;12318;51.262;7.066;2023-03-14T11:51:55;5.60;;;2.50;;
24161;SDS011;12318;51.262;7.066;2023-03-14T11:57:20;5.07;;;1.48;;
24161;SDS011;12318;51.262;7.066;2023-03-14T12:10:49;3.00;;;0.57;;
24161;SDS011;12318;51.262;7.066;2023-03-14T12:13:33;4.18;;;0.93;;
24161;SDS011;12318;51.262;7.066;2023-03-14T12:16:43;5.07;;;0.70;;
24161;SDS011;12318;51.262;7.066;2023-03-14T12:22:00;4.53;;;1.25;;
24161;SDS011;12318;51.262;7.066;2023-03-14T12:24:50;4.20;;;1.40;;
24161;SDS011;12318;51.262;7.066;2023-03-14T12:36:00;3.67;;;1.20;;
24161;SDS011;12318;51.262;7.066;2023-03-14T12:48:01;4.45;;;1.20;;
24161;SDS011;12318;51.262;7.066;2023-03-14T12:50:53;6.00;;;1.00;;
24161;SDS011;12318;51.262;7.066;2023-03-14T13:01:33;7.22;;;1.48;;
24161;SDS011;12318;51.262;7.066;2023-03-14T13:04:09;8.57;;;1.95;;
24161;SDS011;12318;51.262;7.066;2023-03-14T13:12:03;10.25;;;3.55;;
24161;SDS011;12318;51.262;7.066;2023-03-14T13:14:47;11.18;;;3.60;;
24161;SDS011;12318;51.262;7.066;2023-03-14T13:17:29;16.40;;;5.22;;
24161;SDS011;12318;51.262;7.066;2023-03-14T13:20:21;18.35;;;5.72;;
24161;SDS011;12318;51.262;7.066;2023-03-14T13:25:55;8.57;;;2.38;;
24161;SDS011;12318;51.262;7.066;2023-03-14T13:28:46;13.25;;;2.28;;
24161;SDS011;12318;51.262;7.066;2023-03-14T13:31:23;21.33;;;2.90;;
24161;SDS011;12318;51.262;7.066;2023-03-14T13:33:57;19.52;;;3.10;;
24161;SDS011;12318;51.262;7.066;2023-03-14T13:36:31;15.02;;;2.83;;
24161;SDS011;12318;51.262;7.066;2023-03-14T13:39:00;14.80;;;3.13;;
24161;SDS011;12318;51.262;7.066;2023-03-14T13:41:27;19.13;;;3.45;;
24161;SDS011;12318;51.262;7.066;2023-03-14T13:43:58;17.00;;;2.85;;
24161;SDS011;12318;51.262;7.066;2023-03-14T13:46:28;19.98;;;3.70;;
24161;SDS011;12318;51.262;7.066;2023-03-14T13:48:56;19.45;;;4.10;;
24161;SDS011;12318;51.262;7.066;2023-03-14T13:51:25;19.42;;;5.05;;
24161;SDS011;12318;51.262;7.066;2023-03-14T13:53:56;24.50;;;4.20;;
24161;SDS011;12318;51.262;7.066;2023-03-14T13:56:28;19.67;;;3.42;;
24161;SDS011;12318;51.262;7.066;2023-03-14T13:58:55;17.52;;;2.80;;
24161;SDS011;12318;51.262;7.066;2023-03-14T14:01:29;32.63;;;4.85;;
24161;SDS011;12318;51.262;7.066;2023-03-14T14:04:08;21.98;;;3.55;;
24161;SDS011;12318;51.262;7.066;2023-03-14T14:06:44;23.23;;;4.15;;
24161;SDS011;12318;51.262;7.066;2023-03-14T14:11:45;27.80;;;4.15;;
24161;SDS011;12318;51.262;7.066;2023-03-14T14:14:13;23.20;;;4.45;;
24161;SDS011;12318;51.262;7.066;2023-03-14T14:16:43;23.25;;;3.33;;
24161;SDS011;12318;51.262;7.066;2023-03-14T14:19:10;19.83;;;3.47;;
24161;SDS011;12318;51.262;7.066;2023-03-14T14:21:37;25.75;;;4.30;;
24161;SDS011;12318;51.262;7.066;2023-03-14T14:24:07;21.25;;;3.92;;
24161;SDS011;12318;51.262;7.066;2023-03-14T14:26:39;25.55;;;3.42;;
24161;SDS011;12318;51.262;7.066;2023-03-14T14:29:32;19.98;;;3.58;;
24161;SDS011;12318;51.262;7.066;2023-03-14T14:37:03;22.95;;;3.72;;
24161;SDS011;12318;51.262;7.066;2023-03-14T14:39:29;25.10;;;3.88;;
24161;SDS011;12318;51.262;7.066;2023-03-14T14:41:56;22.45;;;4.22;;
24161;SDS011;12318;51.262;7.066;2023-03-14T14:44:35;24.17;;;4.57;;
24161;SDS011;12318;51.262;7.066;2023-03-14T14:47:02;32.22;;;4.22;;
24161;SDS011;12318;51.262;7.066;2023-03-14T14:49:29;26.30;;;5.22;;
24161;SDS011;12318;51.262;7.066;2023-03-14T14:52:00;17.60;;;3.25;;
24161;SDS011;12318;51.262;7.066;2023-03-14T14:54:45;12.52;;;2.65;;
24161;SDS011;12318;51.262;7.066;2023-03-14T14:57:22;10.80;;;2.30;;
24161;SDS011;12318;51.262;7.066;2023-03-14T14:59:50;16.17;;;2.88;;
24161;SDS011;12318;51.262;7.066;2023-03-14T15:02:37;18.70;;;2.33;;
24161;SDS011;12318;51.262;7.066;2023-03-14T15:05:22;13.30;;;2.20;;
24161;SDS011;12318;51.262;7.066;2023-03-14T15:07:49;10.90;;;2.20;;
24161;SDS011;12318;51.262;7.066;2023-03-14T15:10:16;19.55;;;3.20;;
24161;SDS011;12318;51.262;7.066;2023-03-14T15:12:43;17.48;;;3.03;;
24161;SDS011;12318;51.262;7.066;2023-03-14T15:15:10;17.73;;;2.92;;
24161;SDS011;12318;51.262;7.066;2023-03-14T15:17:38;13.13;;;2.60;;
24161;SDS011;12318;51.262;7.066;2023-03-14T15:20:04;19.02;;;2.78;;
24161;SDS011;12318;51.262;7.066;2023-03-14T15:22:32;15.55;;;2.53;;
24161;SDS011;12318;51.262;7.066;2023-03-14T15:24:57;14.98;;;2.55;;
24161;SDS011;12318;51.262;7.066;2023-03-14T15:27:23;16.10;;;2.78;;
24161;SDS011;12318;51.262;7.066;2023-03-14T15:29:49;14.07;;;2.65;;
24161;SDS011;12318;51.262;7.066;2023-03-14T15:32:16;9.65;;;2.50;;
24161;SDS011;12318;51.262;7.066;2023-03-14T15:34:43;12.60;;;2.72;;
24161;SDS011;12318;51.262;7.066;2023-03-14T15:37:13;12.63;;;2.85;;
24161;SDS011;12318;51.262;7.066;2023-03-14T15:39:42;13.38;;;2.25;;
24161;SDS011;12318;51.262;7.066;2023-03-14T15:42:08;16.35;;;2.75;;
24161;SDS011;12318;51.262;7.066;2023-03-14T15:44:34;10.10;;;2.42;;
24161;SDS011;12318;51.262;7.066;2023-03-14T15:47:03;16.23;;;2.90;;
24161;SDS011;12318;51.262;7.066;2023-03-14T15:49:34;15.70;;;2.30;;
24161;SDS011;12318;51.262;7.066;2023-03-14T15:52:00;10.68;;;2.53;;
24161;SDS011;12318;51.262;7.066;2023-03-14T15:54:27;17.05;;;2.67;;
24161;SDS011;12318;51.262;7.066;2023-03-14T15:56:53;13.95;;;2.53;;
24161;SDS011;12318;51.262;7.066;2023-03-14T15:59:20;14.80;;;2.40;;
24161;SDS011;12318;51.262;7.066;2023-03-14T16:01:46;17.23;;;2.50;;
24161;SDS011;12318;51.262;7.066;2023-03-14T16:04:15;16.02;;;2.65;;
24161;SDS011;12318;51.262;7.066;2023-03-14T16:06:41;10.80;;;1.88;;
24161;SDS011;12318;51.262;7.066;2023-03-14T16:09:09;15.95;;;2.47;;
24161;SDS011;12318;51.262;7.066;2023-03-14T16:11:39;8.48;;;1.90;;
24161;SDS011;12318;51.262;7.066;2023-03-14T16:14:05;10.00;;;2.03;;
24161;SDS011;12318;51.262;7.066;2023-03-14T16:16:31;14.02;;;3.10;;
24161;SDS011;12318;51.262;7.066;2023-03-14T16:18:57;13.98;;;4.40;;
24161;SDS011;12318;51.262;7.066;2023-03-14T16:21:22;14.88;;;2.80;;
24161;SDS011;12318;51.262;7.066;2023-03-14T16:23:48;11.38;;;2.28;;
24161;SDS011;12318;51.262;7.066;2023-03-14T16:26:15;12.50;;;2.28;;
24161;SDS011;12318;51.262;7.066;2023-03-14T16:28:42;10.95;;;2.20;;
24161;SDS011;12318;51.262;7.066;2023-03-14T16:31:10;13.75;;;2.60;;
24161;SDS011;12318;51.262;7.066;2023-03-14T16:33:38;11.82;;;2.42;;
24161;SDS011;12318;51.262;7.066;2023-03-14T16:36:06;14.07;;;2.60;;
24161;SDS011;12318;51.262;7.066;2023-03-14T16:38:33;14.13;;;2.80;;
24161;SDS011;12318;51.262;7.066;2023-03-14T16:41:01;6.78;;;1.65;;
24161;SDS011;12318;51.262;7.066;2023-03-14T16:43:38;19.02;;;3.40;;
24161;SDS011;12318;51.262;7.066;2023-03-14T16:46:04;9.60;;;2.20;;
24161;SDS011;12318;51.262;7.066;2023-03-14T16:48:32;12.43;;;2.05;;
24161;SDS011;12318;51.262;7.066;2023-03-14T16:50:57;7.53;;;1.73;;
24161;SDS011;12318;51.262;7.066;2023-03-14T16:53:24;14.45;;;2.22;;
24161;SDS011;12318;51.262;7.066;2023-03-14T16:55:53;10.38;;;1.55;;
24161;SDS011;12318;51.262;7.066;2023-03-14T16:58:19;11.77;;;1.88;;
24161;SDS011;12318;51.262;7.066;2023-03-14T17:00:45;12.85;;;2.35;;
24161;SDS011;12318;51.262;7.066;2023-03-14T17:03:11;10.07;;;2.28;;
24161;SDS011;12318;51.262;7.066;2023-03-14T17:05:43;12.43;;;2.30;;